sensor_id;sensor_type;location;lat;lon;timestamp;P1;durP1;ratioP1;P2;durP2;ratioP2
7541;SDS011;3812;50.006;8.230;2023-02-15T00:02:01;56.57;;;23.60;;
7541;SDS011;3812;50.006;8.230;2023-02-15T00:04:28;50.27;;;23.73;;
7541;SDS011;3812;50.006;8.230;2023-02-15T00:07:12;54.73;;;25.13;;
7541;SDS011;3812;50.006;8.230;2023-02-15T00:09:43;54.47;;;25.07;;
7541;SDS011;3812;50.006;8.230;2023-02-15T00:12:13;55.93;;;24.87;;
7541;SDS011;3812;50.006;8.230;2023-02-15T00:14:42;62.00;;;26.03;;
7541;SDS011;3812;50.006;8.230;2023-02-15T00:17:08;52.17;;;23.80;;
7541;SDS011;3812;50.006;8.230;2023-02-15T00:19:35;54.00;;;24.57;;
7541;SDS011;3812;50.006;8.230;2023-02-15T00:22:02;54.97;;;23.60;;
7541;SDS011;3812;50.006;8.230;2023-02-15T00:24:29;62.13;;;27.17;;
7541;SDS011;3812;50.006;8.230;2023-02-15T00:26:56;76.13;;;25.10;;
7541;SDS011;3812;50.006;8.230;2023-02-15T00:29:25;80.67;;;25.10;;
7541;SDS011;3812;50.006;8.230;2023-02-15T00:31:53;59.53;;;25.30;;
7541;SDS011;3812;50.006;8.230;2023-02-15T00:34:23;58.77;;;25.43;;
7541;SDS011;3812;50.006;8.230;2023-02-15T00:36:51;62.33;;;25.50;;
7541;SDS011;3812;50.006;8.230;2023-02-15T00:39:19;65.93;;;26.23;;
7541;SDS011;3812;50.006;8.230;2023-02-15T00:41:46;52.50;;;23.03;;
7541;SDS011;3812;50.006;8.230;2023-02-15T00:44:13;61.43;;;24.20;;
7541;SDS011;3812;50.006;8.230;2023-02-15T00:46:42;62.23;;;24.83;;
7541;SDS011;3812;50.006;8.230;2023-02-15T00:49:09;64.73;;;24.23;;
7541;SDS011;3812;50.006;8.230;2023-02-15T00:51:36;53.83;;;23.37;;
7541;SDS011;3812;50.006;8.230;2023-02-15T00:54:04;63.27;;;25.33;;
7541;SDS011;3812;50.006;8.230;2023-02-15T00:56:31;59.07;;;24.30;;
7541;SDS011;3812;50.006;8.230;2023-02-15T00:58:58;60.13;;;24.47;;
7541;SDS011;3812;50.006;8.230;2023-02-15T01:01:25;62.53;;;24.80;;
7541;SDS011;3812;50.006;8.230;2023-02-15T01:03:54;62.90;;;25.73;;
7541;SDS011;3812;50.006;8.230;2023-02-15T01:06:21;54.27;;;24.47;;
7541;SDS011;3812;50.006;8.230;2023-02-15T01:08:48;64.80;;;25.93;;
7541;SDS011;3812;50.006;8.230;2023-02-15T01:11:15;59.50;;;26.00;;
7541;SDS011;3812;50.006;8.230;2023-02-15T01:13:47;59.83;;;25.97;;
7541;SDS011;3812;50.006;8.230;2023-02-15T01:16:15;73.70;;;26.37;;
7541;SDS011;3812;50.006;8.230;2023-02-15T01:18:42;67.03;;;24.33;;
7541;SDS011;3812;50.006;8.230;2023-02-15T01:21:11;68.60;;;26.17;;
7541;SDS011;3812;50.006;8.230;2023-02-15T01:23:42;70.73;;;25.60;;
7541;SDS011;3812;50.006;8.230;2023-02-15T01:26:11;65.60;;;26.33;;
7541;SDS011;3812;50.006;8.230;2023-02-15T01:28:39;74.77;;;26.87;;
7541;SDS011;3812;50.006;8.230;2023-02-15T01:31:07;84.70;;;28.37;;
7541;SDS011;3812;50.006;8.230;2023-02-15T01:33:36;77.43;;;27.33;;
7541;SDS011;3812;50.006;8.230;2023-02-15T01:36:04;86.53;;;28.37;;
7541;SDS011;3812;50.006;8.230;2023-02-15T01:38:34;68.63;;;25.80;;
7541;SDS011;3812;50.006;8.230;2023-02-15T01:41:01;75.17;;;25.00;;
7541;SDS011;3812;50.006;8.230;2023-02-15T01:43:42;65.97;;;25.30;;
7541;SDS011;3812;50.006;8.230;2023-02-15T01:46:11;74.40;;;26.17;;
7541;SDS011;3812;50.006;8.230;2023-02-15T01:48:41;64.93;;;24.63;;
7541;SDS011;3812;50.006;8.230;2023-02-15T01:51:11;70.57;;;26.17;;
7541;SDS011;3812;50.006;8.230;2023-02-15T01:53:42;71.80;;;27.50;;
7541;SDS011;3812;50.006;8.230;2023-02-15T01:56:14;79.17;;;28.03;;
7541;SDS011;3812;50.006;8.230;2023-02-15T01:58:47;97.53;;;27.77;;
7541;SDS011;3812;50.006;8.230;2023-02-15T02:01:16;68.20;;;25.70;;
7541;SDS011;3812;50.006;8.230;2023-02-15T02:03:49;70.37;;;26.47;;
7541;SDS011;3812;50.006;8.230;2023-02-15T02:06:23;74.77;;;26.53;;
7541;SDS011;3812;50.006;8.230;2023-02-15T02:08:51;82.67;;;28.80;;
7541;SDS011;3812;50.006;8.230;2023-02-15T02:11:18;76.27;;;26.47;;
7541;SDS011;3812;50.006;8.230;2023-02-15T02:13:47;65.33;;;25.10;;
7541;SDS011;3812;50.006;8.230;2023-02-15T02:16:18;73.20;;;25.67;;
7541;SDS011;3812;50.006;8.230;2023-02-15T02:18:52;77.57;;;27.37;;
7541;SDS011;3812;50.006;8.230;2023-02-15T02:21:46;63.50;;;23.50;;
7541;SDS011;3812;50.006;8.230;2023-02-15T02:24:36;66.83;;;25.20;;
7541;SDS011;3812;50.006;8.230;2023-02-15T02:27:22;67.47;;;25.50;;
7541;SDS011;3812;50.006;8.230;2023-02-15T02:33:08;73.20;;;26.57;;
7541;SDS011;3812;50.006;8.230;2023-02-15T02:36:00;73.70;;;26.70;;
7541;SDS011;3812;50.006;8.230;2023-02-15T02:38:37;63.93;;;25.33;;
7541;SDS011;3812;50.006;8.230;2023-02-15T02:41:13;58.03;;;25.23;;
7541;SDS011;3812;50.006;8.230;2023-02-15T02:43:48;64.67;;;25.00;;
7541;SDS011;3812;50.006;8.230;2023-02-15T02:46:21;94.10;;;26.63;;
7541;SDS011;3812;50.006;8.230;2023-02-15T02:48:55;58.00;;;24.83;;
7541;SDS011;3812;50.006;8.230;2023-02-15T02:51:23;94.20;;;26.23;;
7541;SDS011;3812;50.006;8.230;2023-02-15T02:53:50;64.63;;;25.53;;
7541;SDS011;3812;50.006;8.230;2023-02-15T02:56:22;66.93;;;24.13;;
7541;SDS011;3812;50.006;8.230;2023-02-15T02:58:54;61.07;;;24.03;;
7541;SDS011;3812;50.006;8.230;2023-02-15T03:01:27;67.63;;;24.30;;
7541;SDS011;3812;50.006;8.230;2023-02-15T03:04:00;66.07;;;25.57;;
7541;SDS011;3812;50.006;8.230;2023-02-15T03:06:30;66.73;;;26.37;;
7541;SDS011;3812;50.006;8.230;2023-02-15T03:09:03;84.83;;;25.97;;
7541;SDS011;3812;50.006;8.230;2023-02-15T03:11:39;64.00;;;24.43;;
7541;SDS011;3812;50.006;8.230;2023-02-15T03:14:11;58.93;;;24.90;;
7541;SDS011;3812;50.006;8.230;2023-02-15T03:16:39;72.10;;;26.53;;
7541;SDS011;3812;50.006;8.230;2023-02-15T03:19:12;66.37;;;24.97;;
7541;SDS011;3812;50.006;8.230;2023-02-15T03:21:44;66.23;;;24.50;;
7541;SDS011;3812;50.006;8.230;2023-02-15T03:24:15;68.60;;;25.77;;
7541;SDS011;3812;50.006;8.230;2023-02-15T03:26:47;69.07;;;25.60;;
7541;SDS011;3812;50.006;8.230;2023-02-15T03:29:18;71.97;;;26.40;;
7541;SDS011;3812;50.006;8.230;2023-02-15T03:31:50;83.53;;;26.37;;
7541;SDS011;3812;50.006;8.230;2023-02-15T03:34:24;64.20;;;26.00;;
7541;SDS011;3812;50.006;8.230;2023-02-15T03:36:52;73.37;;;27.03;;
7541;SDS011;3812;50.006;8.230;2023-02-15T03:39:26;65.67;;;25.67;;
7541;SDS011;3812;50.006;8.230;2023-02-15T03:41:58;66.93;;;26.20;;
7541;SDS011;3812;50.006;8.230;2023-02-15T03:44:31;68.43;;;24.93;;
7541;SDS011;3812;50.006;8.230;2023-02-15T03:47:02;62.67;;;24.63;;
7541;SDS011;3812;50.006;8.230;2023-02-15T03:49:38;76.57;;;25.63;;
7541;SDS011;3812;50.006;8.230;2023-02-15T03:52:08;66.60;;;26.50;;
7541;SDS011;3812;50.006;8.230;2023-02-15T03:54:36;60.20;;;24.90;;
7541;SDS011;3812;50.006;8.230;2023-02-15T03:57:16;66.93;;;25.40;;
7541;SDS011;3812;50.006;8.230;2023-02-15T04:00:03;63.73;;;24.07;;
7541;SDS011;3812;50.006;8.230;2023-02-15T04:03:04;62.03;;;25.03;;
7541;SDS011;3812;50.006;8.230;2023-02-15T04:05:38;61.80;;;25.13;;
7541;SDS011;3812;50.006;8.230;2023-02-15T04:08:05;63.83;;;26.43;;
7541;SDS011;3812;50.006;8.230;2023-02-15T04:10:32;58.40;;;25.57;;
7541;SDS011;3812;50.006;8.230;2023-02-15T04:13:17;65.70;;;26.17;;
7541;SDS011;3812;50.006;8.230;2023-02-15T04:15:44;67.27;;;27.43;;
7541;SDS011;3812;50.006;8.230;2023-02-15T04:18:28;64.03;;;27.37;;
7541;SDS011;3812;50.006;8.230;2023-02-15T04:21:14;63.07;;;26.10;;
7541;SDS011;3812;50.006;8.230;2023-02-15T04:23:58;70.10;;;26.33;;
7541;SDS011;3812;50.006;8.230;2023-02-15T04:26:43;81.37;;;24.57;;
7541;SDS011;3812;50.006;8.230;2023-02-15T04:29:10;64.80;;;24.40;;
7541;SDS011;3812;50.006;8.230;2023-02-15T04:31:37;75.20;;;26.97;;
7541;SDS011;3812;50.006;8.230;2023-02-15T04:34:04;60.30;;;25.27;;
7541;SDS011;3812;50.006;8.230;2023-02-15T04:36:32;66.23;;;26.37;;
7541;SDS011;3812;50.006;8.230;2023-02-15T04:38:59;58.83;;;24.77;;
7541;SDS011;3812;50.006;8.230;2023-02-15T04:41:25;62.03;;;25.37;;
7541;SDS011;3812;50.006;8.230;2023-02-15T04:43:52;63.63;;;25.30;;
7541;SDS011;3812;50.006;8.230;2023-02-15T04:46:19;64.50;;;25.80;;
7541;SDS011;3812;50.006;8.230;2023-02-15T04:48:46;59.83;;;24.83;;
7541;SDS011;3812;50.006;8.230;2023-02-15T04:51:13;63.90;;;25.97;;
7541;SDS011;3812;50.006;8.230;2023-02-15T04:53:41;59.93;;;26.03;;
7541;SDS011;3812;50.006;8.230;2023-02-15T04:56:08;63.33;;;26.87;;
7541;SDS011;3812;50.006;8.230;2023-02-15T04:58:35;67.23;;;26.13;;
7541;SDS011;3812;50.006;8.230;2023-02-15T05:01:06;63.23;;;25.73;;
7541;SDS011;3812;50.006;8.230;2023-02-15T05:03:33;107.57;;;27.53;;
7541;SDS011;3812;50.006;8.230;2023-02-15T05:06:00;64.87;;;26.67;;
7541;SDS011;3812;50.006;8.230;2023-02-15T05:08:27;54.47;;;24.20;;
7541;SDS011;3812;50.006;8.230;2023-02-15T05:10:55;52.00;;;23.90;;
7541;SDS011;3812;50.006;8.230;2023-02-15T05:13:22;67.07;;;24.90;;
7541;SDS011;3812;50.006;8.230;2023-02-15T05:15:49;68.13;;;24.33;;
7541;SDS011;3812;50.006;8.230;2023-02-15T05:18:17;60.40;;;23.77;;
7541;SDS011;3812;50.006;8.230;2023-02-15T05:20:44;60.17;;;24.47;;
7541;SDS011;3812;50.006;8.230;2023-02-15T05:23:12;59.50;;;23.67;;
7541;SDS011;3812;50.006;8.230;2023-02-15T05:25:39;55.73;;;24.63;;
7541;SDS011;3812;50.006;8.230;2023-02-15T05:28:25;53.83;;;23.10;;
7541;SDS011;3812;50.006;8.230;2023-02-15T05:30:58;73.00;;;24.47;;
7541;SDS011;3812;50.006;8.230;2023-02-15T05:33:29;66.77;;;24.10;;
7541;SDS011;3812;50.006;8.230;2023-02-15T05:35:56;76.10;;;24.23;;
7541;SDS011;3812;50.006;8.230;2023-02-15T05:38:23;59.47;;;22.23;;
7541;SDS011;3812;50.006;8.230;2023-02-15T05:40:50;55.63;;;22.87;;
7541;SDS011;3812;50.006;8.230;2023-02-15T05:43:17;61.93;;;23.27;;
7541;SDS011;3812;50.006;8.230;2023-02-15T05:45:46;57.20;;;23.77;;
7541;SDS011;3812;50.006;8.230;2023-02-15T05:48:13;69.73;;;23.97;;
7541;SDS011;3812;50.006;8.230;2023-02-15T05:50:40;66.90;;;23.73;;
7541;SDS011;3812;50.006;8.230;2023-02-15T05:53:07;72.03;;;24.17;;
7541;SDS011;3812;50.006;8.230;2023-02-15T05:55:36;55.67;;;23.57;;
7541;SDS011;3812;50.006;8.230;2023-02-15T05:58:03;57.23;;;22.83;;
7541;SDS011;3812;50.006;8.230;2023-02-15T06:00:30;59.67;;;21.10;;
7541;SDS011;3812;50.006;8.230;2023-02-15T06:02:58;57.27;;;21.07;;
7541;SDS011;3812;50.006;8.230;2023-02-15T06:05:25;53.50;;;21.83;;
7541;SDS011;3812;50.006;8.230;2023-02-15T06:07:52;57.93;;;20.33;;
7541;SDS011;3812;50.006;8.230;2023-02-15T06:10:19;48.07;;;19.67;;
7541;SDS011;3812;50.006;8.230;2023-02-15T06:12:46;58.43;;;21.03;;
7541;SDS011;3812;50.006;8.230;2023-02-15T06:15:13;49.80;;;19.80;;
7541;SDS011;3812;50.006;8.230;2023-02-15T06:17:40;55.27;;;20.27;;
7541;SDS011;3812;50.006;8.230;2023-02-15T06:20:10;49.57;;;19.30;;
7541;SDS011;3812;50.006;8.230;2023-02-15T06:22:37;47.80;;;20.50;;
7541;SDS011;3812;50.006;8.230;2023-02-15T06:25:04;49.20;;;19.50;;
7541;SDS011;3812;50.006;8.230;2023-02-15T06:27:35;45.97;;;18.33;;
7541;SDS011;3812;50.006;8.230;2023-02-15T06:30:02;40.53;;;17.00;;
7541;SDS011;3812;50.006;8.230;2023-02-15T06:32:30;38.43;;;16.93;;
7541;SDS011;3812;50.006;8.230;2023-02-15T06:34:58;43.13;;;17.27;;
7541;SDS011;3812;50.006;8.230;2023-02-15T06:37:26;39.20;;;16.57;;
7541;SDS011;3812;50.006;8.230;2023-02-15T06:39:53;40.83;;;16.93;;
7541;SDS011;3812;50.006;8.230;2023-02-15T06:42:20;39.10;;;15.63;;
7541;SDS011;3812;50.006;8.230;2023-02-15T06:44:47;41.50;;;16.50;;
7541;SDS011;3812;50.006;8.230;2023-02-15T06:47:14;46.20;;;18.93;;
7541;SDS011;3812;50.006;8.230;2023-02-15T06:49:41;47.23;;;19.40;;
7541;SDS011;3812;50.006;8.230;2023-02-15T06:52:09;42.23;;;17.83;;
7541;SDS011;3812;50.006;8.230;2023-02-15T06:54:37;43.43;;;17.57;;
7541;SDS011;3812;50.006;8.230;2023-02-15T06:57:04;37.23;;;17.13;;
7541;SDS011;3812;50.006;8.230;2023-02-15T06:59:31;40.30;;;16.63;;
7541;SDS011;3812;50.006;8.230;2023-02-15T07:01:58;41.33;;;17.23;;
7541;SDS011;3812;50.006;8.230;2023-02-15T07:04:25;47.33;;;17.83;;
7541;SDS011;3812;50.006;8.230;2023-02-15T07:06:53;46.37;;;17.50;;
7541;SDS011;3812;50.006;8.230;2023-02-15T07:09:20;39.90;;;17.53;;
7541;SDS011;3812;50.006;8.230;2023-02-15T07:11:49;38.10;;;16.93;;
7541;SDS011;3812;50.006;8.230;2023-02-15T07:14:33;37.03;;;15.23;;
7541;SDS011;3812;50.006;8.230;2023-02-15T07:17:00;37.13;;;16.03;;
7541;SDS011;3812;50.006;8.230;2023-02-15T07:19:27;34.37;;;16.67;;
7541;SDS011;3812;50.006;8.230;2023-02-15T07:21:54;38.33;;;16.70;;
7541;SDS011;3812;50.006;8.230;2023-02-15T07:24:21;35.20;;;16.73;;
7541;SDS011;3812;50.006;8.230;2023-02-15T07:26:49;32.97;;;15.27;;
7541;SDS011;3812;50.006;8.230;2023-02-15T07:29:16;33.47;;;16.40;;
7541;SDS011;3812;50.006;8.230;2023-02-15T07:31:43;30.93;;;14.70;;
7541;SDS011;3812;50.006;8.230;2023-02-15T07:34:10;35.57;;;16.50;;
7541;SDS011;3812;50.006;8.230;2023-02-15T07:36:37;34.73;;;16.07;;
7541;SDS011;3812;50.006;8.230;2023-02-15T07:39:04;36.80;;;16.57;;
7541;SDS011;3812;50.006;8.230;2023-02-15T07:41:31;33.93;;;16.03;;
7541;SDS011;3812;50.006;8.230;2023-02-15T07:43:59;32.50;;;15.13;;
7541;SDS011;3812;50.006;8.230;2023-02-15T07:46:26;32.83;;;16.03;;
7541;SDS011;3812;50.006;8.230;2023-02-15T07:48:53;33.23;;;14.63;;
7541;SDS011;3812;50.006;8.230;2023-02-15T07:51:20;32.17;;;15.03;;
7541;SDS011;3812;50.006;8.230;2023-02-15T07:53:47;38.93;;;17.40;;
7541;SDS011;3812;50.006;8.230;2023-02-15T07:56:16;33.43;;;14.87;;
7541;SDS011;3812;50.006;8.230;2023-02-15T07:58:43;34.73;;;15.03;;
7541;SDS011;3812;50.006;8.230;2023-02-15T08:01:24;33.93;;;14.80;;
7541;SDS011;3812;50.006;8.230;2023-02-15T08:03:52;31.03;;;14.73;;
7541;SDS011;3812;50.006;8.230;2023-02-15T08:06:19;32.77;;;14.50;;
7541;SDS011;3812;50.006;8.230;2023-02-15T08:08:47;50.67;;;19.90;;
7541;SDS011;3812;50.006;8.230;2023-02-15T08:11:15;40.77;;;16.17;;
7541;SDS011;3812;50.006;8.230;2023-02-15T08:13:54;32.40;;;14.83;;
7541;SDS011;3812;50.006;8.230;2023-02-15T08:16:26;33.80;;;14.80;;
7541;SDS011;3812;50.006;8.230;2023-02-15T08:18:59;33.20;;;14.83;;
7541;SDS011;3812;50.006;8.230;2023-02-15T08:21:28;34.40;;;15.33;;
7541;SDS011;3812;50.006;8.230;2023-02-15T08:23:55;32.07;;;15.23;;
7541;SDS011;3812;50.006;8.230;2023-02-15T08:26:23;31.73;;;14.00;;
7541;SDS011;3812;50.006;8.230;2023-02-15T08:28:50;30.00;;;13.60;;
7541;SDS011;3812;50.006;8.230;2023-02-15T08:31:18;28.43;;;13.70;;
7541;SDS011;3812;50.006;8.230;2023-02-15T08:33:47;30.13;;;14.00;;
7541;SDS011;3812;50.006;8.230;2023-02-15T08:36:16;29.67;;;13.60;;
7541;SDS011;3812;50.006;8.230;2023-02-15T08:38:44;24.87;;;12.43;;
7541;SDS011;3812;50.006;8.230;2023-02-15T08:41:13;28.57;;;13.60;;
7541;SDS011;3812;50.006;8.230;2023-02-15T08:43:42;24.80;;;11.87;;
7541;SDS011;3812;50.006;8.230;2023-02-15T08:46:11;23.57;;;12.07;;
7541;SDS011;3812;50.006;8.230;2023-02-15T08:48:39;27.47;;;13.80;;
7541;SDS011;3812;50.006;8.230;2023-02-15T08:51:09;28.53;;;13.83;;
7541;SDS011;3812;50.006;8.230;2023-02-15T08:53:38;25.90;;;13.07;;
7541;SDS011;3812;50.006;8.230;2023-02-15T08:56:06;24.70;;;12.43;;
7541;SDS011;3812;50.006;8.230;2023-02-15T08:58:33;29.53;;;13.93;;
7541;SDS011;3812;50.006;8.230;2023-02-15T09:01:00;26.30;;;12.57;;
7541;SDS011;3812;50.006;8.230;2023-02-15T09:03:33;24.37;;;12.33;;
7541;SDS011;3812;50.006;8.230;2023-02-15T09:06:00;26.73;;;12.43;;
7541;SDS011;3812;50.006;8.230;2023-02-15T09:08:29;26.73;;;12.63;;
7541;SDS011;3812;50.006;8.230;2023-02-15T09:11:04;23.93;;;12.20;;
7541;SDS011;3812;50.006;8.230;2023-02-15T09:13:35;27.20;;;12.73;;
7541;SDS011;3812;50.006;8.230;2023-02-15T09:16:03;28.83;;;14.47;;
7541;SDS011;3812;50.006;8.230;2023-02-15T09:18:32;25.30;;;12.20;;
7541;SDS011;3812;50.006;8.230;2023-02-15T09:21:05;26.50;;;13.13;;
7541;SDS011;3812;50.006;8.230;2023-02-15T09:23:35;27.67;;;12.80;;
7541;SDS011;3812;50.006;8.230;2023-02-15T09:26:03;27.67;;;13.47;;
7541;SDS011;3812;50.006;8.230;2023-02-15T09:28:31;27.30;;;13.80;;
7541;SDS011;3812;50.006;8.230;2023-02-15T09:31:04;27.87;;;13.93;;
7541;SDS011;3812;50.006;8.230;2023-02-15T09:33:32;31.13;;;14.23;;
7541;SDS011;3812;50.006;8.230;2023-02-15T09:36:01;24.37;;;13.53;;
7541;SDS011;3812;50.006;8.230;2023-02-15T09:38:28;26.73;;;13.40;;
7541;SDS011;3812;50.006;8.230;2023-02-15T09:40:58;22.77;;;12.83;;
7541;SDS011;3812;50.006;8.230;2023-02-15T09:43:45;24.23;;;12.87;;
7541;SDS011;3812;50.006;8.230;2023-02-15T09:46:26;24.63;;;12.70;;
7541;SDS011;3812;50.006;8.230;2023-02-15T09:49:11;23.90;;;12.67;;
7541;SDS011;3812;50.006;8.230;2023-02-15T09:51:54;21.43;;;11.53;;
7541;SDS011;3812;50.006;8.230;2023-02-15T09:54:34;26.93;;;13.80;;
7541;SDS011;3812;50.006;8.230;2023-02-15T09:57:15;27.80;;;13.87;;
7541;SDS011;3812;50.006;8.230;2023-02-15T09:59:54;27.50;;;13.87;;
7541;SDS011;3812;50.006;8.230;2023-02-15T10:02:44;28.33;;;14.97;;
7541;SDS011;3812;50.006;8.230;2023-02-15T10:05:21;27.37;;;13.43;;
7541;SDS011;3812;50.006;8.230;2023-02-15T10:08:03;26.40;;;14.37;;
7541;SDS011;3812;50.006;8.230;2023-02-15T10:10:43;26.90;;;14.63;;
7541;SDS011;3812;50.006;8.230;2023-02-15T10:13:29;30.20;;;13.80;;
7541;SDS011;3812;50.006;8.230;2023-02-15T10:16:07;30.83;;;14.90;;
7541;SDS011;3812;50.006;8.230;2023-02-15T10:18:47;30.40;;;15.90;;
7541;SDS011;3812;50.006;8.230;2023-02-15T10:21:23;26.67;;;14.67;;
7541;SDS011;3812;50.006;8.230;2023-02-15T10:24:06;25.03;;;13.57;;
7541;SDS011;3812;50.006;8.230;2023-02-15T10:26:42;25.63;;;13.03;;
7541;SDS011;3812;50.006;8.230;2023-02-15T10:29:15;27.53;;;13.20;;
7541;SDS011;3812;50.006;8.230;2023-02-15T10:31:54;25.77;;;13.37;;
7541;SDS011;3812;50.006;8.230;2023-02-15T10:34:28;27.83;;;14.77;;
7541;SDS011;3812;50.006;8.230;2023-02-15T10:37:10;27.80;;;13.97;;
7541;SDS011;3812;50.006;8.230;2023-02-15T10:40:10;26.67;;;14.67;;
7541;SDS011;3812;50.006;8.230;2023-02-15T10:42:49;25.10;;;14.00;;
7541;SDS011;3812;50.006;8.230;2023-02-15T10:45:37;27.87;;;14.47;;
7541;SDS011;3812;50.006;8.230;2023-02-15T10:48:16;21.77;;;12.60;;
7541;SDS011;3812;50.006;8.230;2023-02-15T10:50:53;25.90;;;13.80;;
7541;SDS011;3812;50.006;8.230;2023-02-15T10:53:32;28.10;;;14.27;;
7541;SDS011;3812;50.006;8.230;2023-02-15T10:56:22;26.77;;;12.90;;
7541;SDS011;3812;50.006;8.230;2023-02-15T10:59:00;24.60;;;13.80;;
7541;SDS011;3812;50.006;8.230;2023-02-15T11:01:41;27.33;;;14.10;;
7541;SDS011;3812;50.006;8.230;2023-02-15T11:07:08;24.57;;;14.27;;
7541;SDS011;3812;50.006;8.230;2023-02-15T11:09:43;25.43;;;13.50;;
7541;SDS011;3812;50.006;8.230;2023-02-15T11:12:15;25.53;;;14.30;;
7541;SDS011;3812;50.006;8.230;2023-02-15T11:14:46;22.57;;;13.80;;
7541;SDS011;3812;50.006;8.230;2023-02-15T11:17:22;24.07;;;13.80;;
7541;SDS011;3812;50.006;8.230;2023-02-15T11:19:55;24.87;;;14.77;;
7541;SDS011;3812;50.006;8.230;2023-02-15T11:22:28;27.47;;;15.53;;
7541;SDS011;3812;50.006;8.230;2023-02-15T11:24:57;24.90;;;13.83;;
7541;SDS011;3812;50.006;8.230;2023-02-15T11:27:26;22.67;;;12.90;;
7541;SDS011;3812;50.006;8.230;2023-02-15T11:29:58;25.20;;;14.70;;
7541;SDS011;3812;50.006;8.230;2023-02-15T11:32:30;25.93;;;14.87;;
7541;SDS011;3812;50.006;8.230;2023-02-15T11:35:00;28.20;;;14.47;;
7541;SDS011;3812;50.006;8.230;2023-02-15T11:37:32;26.57;;;14.93;;
7541;SDS011;3812;50.006;8.230;2023-02-15T11:40:03;25.47;;;14.93;;
7541;SDS011;3812;50.006;8.230;2023-02-15T11:42:43;26.53;;;14.37;;
7541;SDS011;3812;50.006;8.230;2023-02-15T11:45:16;25.70;;;14.23;;
7541;SDS011;3812;50.006;8.230;2023-02-15T11:47:50;28.00;;;15.47;;
7541;SDS011;3812;50.006;8.230;2023-02-15T11:50:19;32.00;;;16.10;;
7541;SDS011;3812;50.006;8.230;2023-02-15T11:52:48;22.93;;;14.17;;
7541;SDS011;3812;50.006;8.230;2023-02-15T11:55:18;30.30;;;15.37;;
7541;SDS011;3812;50.006;8.230;2023-02-15T11:57:48;25.83;;;14.37;;
7541;SDS011;3812;50.006;8.230;2023-02-15T12:00:20;26.47;;;13.80;;
7541;SDS011;3812;50.006;8.230;2023-02-15T12:02:57;25.50;;;14.17;;
7541;SDS011;3812;50.006;8.230;2023-02-15T12:05:25;23.93;;;14.00;;
7541;SDS011;3812;50.006;8.230;2023-02-15T12:07:54;25.13;;;14.23;;
7541;SDS011;3812;50.006;8.230;2023-02-15T12:10:27;26.97;;;14.70;;
7541;SDS011;3812;50.006;8.230;2023-02-15T12:13:08;25.10;;;15.27;;
7541;SDS011;3812;50.006;8.230;2023-02-15T12:15:37;24.33;;;13.43;;
7541;SDS011;3812;50.006;8.230;2023-02-15T12:18:15;23.63;;;13.33;;
7541;SDS011;3812;50.006;8.230;2023-02-15T12:20:46;23.63;;;13.77;;
7541;SDS011;3812;50.006;8.230;2023-02-15T12:23:15;23.77;;;13.43;;
7541;SDS011;3812;50.006;8.230;2023-02-15T12:25:43;23.63;;;13.47;;
7541;SDS011;3812;50.006;8.230;2023-02-15T12:28:22;26.93;;;14.00;;
7541;SDS011;3812;50.006;8.230;2023-02-15T12:30:52;25.43;;;15.10;;
7541;SDS011;3812;50.006;8.230;2023-02-15T12:33:25;24.77;;;14.30;;
7541;SDS011;3812;50.006;8.230;2023-02-15T12:35:56;22.47;;;13.00;;
7541;SDS011;3812;50.006;8.230;2023-02-15T12:38:26;22.87;;;13.93;;
7541;SDS011;3812;50.006;8.230;2023-02-15T12:40:58;22.37;;;13.27;;
7541;SDS011;3812;50.006;8.230;2023-02-15T12:43:29;21.33;;;14.27;;
7541;SDS011;3812;50.006;8.230;2023-02-15T12:48:49;22.73;;;13.77;;
7541;SDS011;3812;50.006;8.230;2023-02-15T12:51:41;24.77;;;14.97;;
7541;SDS011;3812;50.006;8.230;2023-02-15T12:54:15;26.40;;;14.67;;
7541;SDS011;3812;50.006;8.230;2023-02-15T12:57:20;24.13;;;14.13;;
7541;SDS011;3812;50.006;8.230;2023-02-15T12:59:50;23.17;;;13.23;;
7541;SDS011;3812;50.006;8.230;2023-02-15T13:02:21;27.27;;;14.93;;
7541;SDS011;3812;50.006;8.230;2023-02-15T13:04:51;22.17;;;13.33;;
7541;SDS011;3812;50.006;8.230;2023-02-15T13:07:20;26.80;;;14.33;;
7541;SDS011;3812;50.006;8.230;2023-02-15T13:09:47;26.63;;;14.43;;
7541;SDS011;3812;50.006;8.230;2023-02-15T13:12:17;22.53;;;13.90;;
7541;SDS011;3812;50.006;8.230;2023-02-15T13:14:47;22.07;;;13.67;;
7541;SDS011;3812;50.006;8.230;2023-02-15T13:17:17;22.97;;;13.13;;
7541;SDS011;3812;50.006;8.230;2023-02-15T13:19:50;25.97;;;14.77;;
7541;SDS011;3812;50.006;8.230;2023-02-15T13:22:21;22.53;;;13.17;;
7541;SDS011;3812;50.006;8.230;2023-02-15T13:24:50;23.10;;;13.17;;
7541;SDS011;3812;50.006;8.230;2023-02-15T13:27:22;26.20;;;15.97;;
7541;SDS011;3812;50.006;8.230;2023-02-15T13:29:52;22.57;;;13.00;;
7541;SDS011;3812;50.006;8.230;2023-02-15T13:32:25;24.27;;;13.13;;
7541;SDS011;3812;50.006;8.230;2023-02-15T13:34:56;20.47;;;13.23;;
7541;SDS011;3812;50.006;8.230;2023-02-15T13:37:31;21.30;;;12.97;;
7541;SDS011;3812;50.006;8.230;2023-02-15T13:40:10;21.40;;;14.03;;
7541;SDS011;3812;50.006;8.230;2023-02-15T13:42:42;26.97;;;15.47;;
7541;SDS011;3812;50.006;8.230;2023-02-15T13:45:20;26.13;;;15.07;;
7541;SDS011;3812;50.006;8.230;2023-02-15T13:48:00;21.83;;;14.23;;
7541;SDS011;3812;50.006;8.230;2023-02-15T13:50:47;22.97;;;14.50;;
7541;SDS011;3812;50.006;8.230;2023-02-15T13:53:27;23.57;;;14.93;;
7541;SDS011;3812;50.006;8.230;2023-02-15T13:56:06;22.20;;;14.30;;
7541;SDS011;3812;50.006;8.230;2023-02-15T14:01:34;25.73;;;14.90;;
7541;SDS011;3812;50.006;8.230;2023-02-15T14:07:15;24.03;;;14.57;;
7541;SDS011;3812;50.006;8.230;2023-02-15T14:09:53;21.80;;;14.10;;
7541;SDS011;3812;50.006;8.230;2023-02-15T14:12:40;22.90;;;14.47;;
7541;SDS011;3812;50.006;8.230;2023-02-15T14:15:25;26.67;;;15.43;;
7541;SDS011;3812;50.006;8.230;2023-02-15T14:18:00;27.33;;;16.37;;
7541;SDS011;3812;50.006;8.230;2023-02-15T14:20:44;28.87;;;15.87;;
7541;SDS011;3812;50.006;8.230;2023-02-15T14:23:22;24.43;;;15.20;;
7541;SDS011;3812;50.006;8.230;2023-02-15T14:26:00;27.43;;;16.70;;
7541;SDS011;3812;50.006;8.230;2023-02-15T14:28:32;28.53;;;17.73;;
7541;SDS011;3812;50.006;8.230;2023-02-15T14:31:06;27.27;;;15.80;;
7541;SDS011;3812;50.006;8.230;2023-02-15T14:33:38;29.93;;;16.43;;
7541;SDS011;3812;50.006;8.230;2023-02-15T14:36:08;29.20;;;17.03;;
7541;SDS011;3812;50.006;8.230;2023-02-15T14:38:51;28.73;;;16.50;;
7541;SDS011;3812;50.006;8.230;2023-02-15T14:41:27;33.53;;;17.73;;
7541;SDS011;3812;50.006;8.230;2023-02-15T14:43:59;27.33;;;16.80;;
7541;SDS011;3812;50.006;8.230;2023-02-15T14:46:36;32.17;;;17.97;;
7541;SDS011;3812;50.006;8.230;2023-02-15T14:49:10;28.40;;;17.17;;
7541;SDS011;3812;50.006;8.230;2023-02-15T14:51:53;32.43;;;19.30;;
7541;SDS011;3812;50.006;8.230;2023-02-15T14:57:25;30.13;;;17.60;;
7541;SDS011;3812;50.006;8.230;2023-02-15T14:59:56;30.80;;;17.90;;
7541;SDS011;3812;50.006;8.230;2023-02-15T15:02:25;33.33;;;18.97;;
7541;SDS011;3812;50.006;8.230;2023-02-15T15:04:56;34.07;;;19.10;;
7541;SDS011;3812;50.006;8.230;2023-02-15T15:07:29;35.53;;;19.63;;
7541;SDS011;3812;50.006;8.230;2023-02-15T15:10:18;33.87;;;19.07;;
7541;SDS011;3812;50.006;8.230;2023-02-15T15:22:29;31.53;;;18.73;;
7541;SDS011;3812;50.006;8.230;2023-02-15T15:24:57;29.07;;;18.40;;
7541;SDS011;3812;50.006;8.230;2023-02-15T15:27:46;33.97;;;19.47;;
7541;SDS011;3812;50.006;8.230;2023-02-15T15:33:19;31.30;;;18.73;;
7541;SDS011;3812;50.006;8.230;2023-02-15T15:36:17;38.03;;;21.07;;
7541;SDS011;3812;50.006;8.230;2023-02-15T15:39:17;32.87;;;19.23;;
7541;SDS011;3812;50.006;8.230;2023-02-15T15:41:57;34.93;;;20.30;;
7541;SDS011;3812;50.006;8.230;2023-02-15T15:47:37;35.97;;;20.33;;
7541;SDS011;3812;50.006;8.230;2023-02-15T15:50:17;34.70;;;20.20;;
7541;SDS011;3812;50.006;8.230;2023-02-15T15:52:46;34.03;;;19.70;;